createdAt,value
2022-09-12T00:01:20.092Z,94.83
2022-09-12T00:03:47.096Z,95.21
2022-09-12T00:06:22.390Z,95.31
2022-09-12T00:08:49.808Z,95.44
2022-09-12T00:11:16.319Z,95.56
2022-09-12T00:13:43.133Z,95.33
2022-09-12T00:16:23.427Z,95.31
2022-09-12T00:18:50.954Z,95.87
2022-09-12T00:21:18.196Z,95.09
2022-09-12T00:23:45.307Z,95.09
2022-09-12T00:26:12.815Z,95.04
2022-09-12T00:28:41.090Z,94.98
2022-09-12T00:31:10.821Z,95.02
2022-09-12T00:33:39.432Z,94.52
2022-09-12T00:36:08.442Z,94.58
2022-09-12T00:38:35.112Z,94.71
2022-09-12T00:41:01.666Z,94.43
2022-09-12T00:43:36.971Z,94.44
2022-09-12T00:46:08.388Z,94.54
2022-09-12T00:48:41.722Z,94.13
2022-09-12T00:51:08.976Z,94.13
2022-09-12T00:53:35.601Z,94.62
2022-09-12T00:56:02.669Z,94.56
2022-09-12T00:58:31.588Z,94.13
2022-09-12T01:00:58.949Z,94.48
2022-09-12T01:03:26.623Z,95.57
2022-09-12T01:06:05.895Z,95.68
2022-09-12T01:08:34.248Z,95.14
2022-09-12T01:11:01.595Z,94.92
2022-09-12T01:13:28.689Z,94.82
2022-09-12T01:15:55.632Z,94.97
2022-09-12T01:18:30.006Z,95.14
2022-09-12T01:21:11.142Z,95.27
2022-09-12T01:24:19.605Z,96.08
2022-09-12T01:27:14.500Z,95.91
2022-09-12T01:30:03.999Z,95.53
2022-09-12T01:32:48.862Z,95.20
2022-09-12T01:35:23.812Z,95.71
2022-09-12T01:38:02.084Z,96.32
2022-09-12T01:40:36.310Z,96.55
2022-09-12T01:43:11.997Z,96.14
2022-09-12T01:45:43.910Z,95.94
2022-09-12T01:48:16.439Z,95.84
2022-09-12T01:50:50.203Z,95.85
2022-09-12T01:53:22.099Z,95.66
2022-09-12T01:55:50.956Z,95.32
2022-09-12T01:58:22.104Z,95.01
2022-09-12T02:00:54.231Z,95.36
2022-09-12T02:03:27.337Z,94.80
2022-09-12T02:05:59.830Z,94.57
2022-09-12T02:08:31.319Z,94.75
2022-09-12T02:11:02.118Z,95.24
2022-09-12T02:13:35.350Z,95.29
2022-09-12T02:16:07.800Z,95.26
2022-09-12T02:18:38.602Z,94.85
2022-09-12T02:21:06.429Z,95.23
2022-09-12T02:23:36.698Z,94.55
2022-09-12T02:26:10.735Z,94.71
2022-09-12T02:28:41.857Z,94.54
2022-09-12T02:31:18.354Z,94.02
2022-09-12T02:33:52.504Z,93.51
2022-09-12T02:36:31.615Z,93.17
2022-09-12T02:38:58.352Z,93.41
2022-09-12T02:41:25.004Z,94.27
2022-09-12T02:43:53.485Z,94.21
2022-09-12T02:46:23.510Z,94.05
2022-09-12T02:48:51.489Z,93.96
2022-09-12T02:51:22.916Z,93.37
2022-09-12T02:53:50.572Z,93.59
2022-09-12T02:56:22.716Z,93.89
2022-09-12T02:58:49.729Z,93.21
2022-09-12T03:01:28.988Z,93.07
2022-09-12T03:04:19.251Z,92.92
2022-09-12T03:06:53.679Z,92.63
2022-09-12T03:09:33.477Z,92.92
2022-09-12T03:12:10.129Z,92.94
2022-09-12T03:14:56.144Z,92.88
2022-09-12T03:17:32.709Z,92.56
2022-09-12T03:20:06.407Z,92.00
2022-09-12T03:22:42.903Z,92.14
2022-09-12T03:25:16.147Z,92.66
2022-09-12T03:27:48.905Z,92.76
2022-09-12T03:30:15.572Z,92.66
2022-09-12T03:32:47.469Z,92.32
2022-09-12T03:35:18.788Z,92.17
2022-09-12T03:37:48.851Z,91.79
2022-09-12T03:40:15.552Z,91.64
2022-09-12T03:42:42.527Z,91.25
2022-09-12T03:45:10.363Z,91.20
2022-09-12T03:47:36.898Z,91.67
2022-09-12T03:50:04.375Z,91.24
2022-09-12T03:52:32.247Z,91.11
2022-09-12T03:54:58.821Z,91.66
2022-09-12T03:57:25.335Z,92.46
2022-09-12T03:59:51.849Z,92.74
2022-09-12T04:02:18.410Z,92.88
2022-09-12T04:04:45.561Z,93.31
2022-09-12T04:07:12.093Z,93.31
2022-09-12T04:09:39.943Z,93.61
2022-09-12T04:12:07.181Z,93.58
2022-09-12T04:14:34.276Z,93.77
2022-09-12T04:17:00.810Z,94.57
2022-09-12T04:19:27.634Z,94.52
2022-09-12T04:21:54.173Z,95.12
2022-09-12T04:24:20.700Z,95.05
2022-09-12T04:26:48.635Z,95.02
2022-09-12T04:29:15.163Z,95.33
2022-09-12T04:31:41.984Z,95.28
2022-09-12T04:34:08.616Z,95.92
2022-09-12T04:36:35.526Z,96.42
2022-09-12T04:39:03.797Z,97.42
2022-09-12T04:41:32.536Z,97.64
2022-09-12T04:44:02.833Z,98.06
2022-09-12T04:46:31.751Z,98.18
2022-09-12T04:48:58.323Z,98.33
2022-09-12T04:51:28.318Z,98.62
2022-09-12T04:53:57.408Z,98.18
2022-09-12T04:56:24.687Z,98.04
2022-09-12T04:58:51.208Z,97.95
2022-09-12T05:01:20.885Z,97.27
2022-09-12T05:03:48.713Z,97.34
2022-09-12T05:06:17.034Z,97.51
2022-09-12T05:08:43.836Z,97.27
2022-09-12T05:11:12.813Z,97.22
2022-09-12T05:13:39.681Z,97.06
2022-09-12T05:16:08.077Z,96.91
2022-09-12T05:18:37.017Z,96.78
2022-09-12T05:21:05.926Z,96.80
2022-09-12T05:23:32.506Z,96.58
2022-09-12T05:25:59.769Z,96.12
2022-09-12T05:28:30.576Z,96.48
2022-09-12T05:31:01.088Z,95.74
2022-09-12T05:33:27.785Z,95.60
2022-09-12T05:35:55.816Z,95.31
2022-09-12T05:38:22.480Z,94.93
2022-09-12T05:40:49.032Z,94.78
2022-09-12T05:43:15.542Z,94.50
2022-09-12T05:45:42.125Z,94.53
2022-09-12T05:48:08.783Z,94.23
2022-09-12T05:50:35.528Z,94.02
2022-09-12T05:53:03.380Z,93.92
2022-09-12T05:55:29.912Z,93.72
2022-09-12T05:57:56.458Z,94.07
2022-09-12T06:00:22.972Z,94.06
2022-09-12T06:02:52.351Z,94.16
2022-09-12T06:05:19.173Z,94.18
2022-09-12T06:07:46.050Z,93.68
2022-09-12T06:10:14.127Z,93.53
2022-09-12T06:12:40.647Z,93.18
2022-09-12T06:15:08.143Z,92.92
2022-09-12T06:17:34.672Z,92.99
2022-09-12T06:20:01.386Z,92.75
2022-09-12T06:22:27.892Z,92.59
2022-09-12T06:24:57.859Z,92.85
2022-09-12T06:27:25.995Z,92.62
2022-09-12T06:29:52.516Z,92.79
2022-09-12T06:32:19.030Z,92.47
2022-09-12T06:34:45.541Z,92.11
2022-09-12T06:37:12.080Z,94.07
2022-09-12T06:39:38.675Z,93.96
2022-09-12T06:42:05.635Z,94.45
2022-09-12T06:44:33.578Z,94.08
2022-09-12T06:47:00.135Z,93.60
2022-09-12T06:49:26.658Z,93.76
2022-09-12T06:51:53.199Z,94.06
2022-09-12T06:54:19.730Z,94.91
2022-09-12T06:56:46.255Z,95.79
2022-09-12T06:59:12.928Z,95.67
2022-09-12T07:01:41.064Z,96.26
2022-09-12T07:04:07.742Z,96.43
2022-09-12T07:06:37.757Z,96.22
2022-09-12T07:09:06.842Z,96.39
2022-09-12T07:11:34.907Z,96.14
2022-09-12T07:14:03.032Z,96.80
2022-09-12T07:16:30.404Z,96.69
2022-09-12T07:18:59.840Z,96.65
2022-09-12T07:21:27.697Z,96.62
2022-09-12T07:23:54.495Z,95.87
2022-09-12T07:26:21.264Z,94.82
2022-09-12T07:28:51.503Z,93.59
2022-09-12T07:31:19.444Z,92.25
2022-09-12T07:33:46.465Z,91.88
2022-09-12T07:36:17.804Z,93.66
2022-09-12T07:38:44.909Z,92.74
2022-09-12T07:41:12.348Z,92.00
2022-09-12T07:43:38.963Z,91.14
2022-09-12T07:46:06.071Z,90.17
2022-09-12T07:48:32.660Z,89.76
2022-09-12T07:50:59.934Z,92.19
2022-09-12T07:53:31.578Z,91.51
2022-09-12T07:55:58.138Z,91.12
2022-09-12T07:58:24.879Z,90.25
2022-09-12T08:00:51.452Z,89.70
2022-09-12T08:03:18.330Z,89.28
2022-09-12T08:05:44.848Z,88.21
2022-09-12T08:08:11.418Z,87.25
2022-09-12T08:10:39.291Z,85.89
2022-09-12T08:13:05.807Z,84.60
2022-09-12T08:15:32.362Z,84.59
2022-09-12T08:17:58.970Z,85.56
2022-09-12T08:20:28.410Z,87.64
2022-09-12T08:22:55.132Z,88.61
2022-09-12T08:25:21.671Z,88.46
2022-09-12T08:27:49.678Z,87.69
2022-09-12T08:30:16.242Z,88.57
2022-09-12T08:32:42.779Z,87.81
2022-09-12T08:35:09.638Z,87.38
2022-09-12T08:37:36.169Z,88.79
2022-09-12T08:40:03.147Z,88.58
2022-09-12T08:42:50.434Z,90.10
2022-09-12T08:45:22.946Z,89.25
2022-09-12T08:47:50.764Z,90.22
2022-09-12T08:50:20.589Z,87.96
2022-09-12T08:52:55.944Z,86.81
2022-09-12T08:55:34.953Z,84.95
2022-09-12T08:58:05.220Z,86.36
2022-09-12T09:00:41.248Z,87.71
2022-09-12T09:03:24.259Z,86.45
2022-09-12T09:05:57.964Z,86.18
2022-09-12T09:08:43.430Z,85.27
2022-09-12T09:11:26.426Z,84.33
2022-09-12T09:14:05.335Z,82.96
2022-09-12T09:16:36.504Z,82.76
2022-09-12T09:19:08.172Z,83.11
2022-09-12T09:21:41.182Z,83.41
2022-09-12T09:24:11.638Z,82.85
2022-09-12T09:26:45.088Z,83.98
2022-09-12T09:29:17.204Z,83.64
2022-09-12T09:31:48.543Z,83.34
2022-09-12T09:34:18.841Z,82.62
2022-09-12T09:36:50.384Z,81.18
2022-09-12T09:39:27.928Z,80.43
2022-09-12T09:42:09.111Z,81.48
2022-09-12T09:44:36.683Z,83.69
2022-09-12T09:47:04.823Z,85.44
2022-09-12T09:49:34.170Z,83.86
2022-09-12T09:52:01.636Z,81.87
2022-09-12T09:54:33.706Z,84.15
2022-09-12T09:57:00.230Z,84.15
2022-09-12T09:59:28.756Z,83.39
2022-09-12T10:01:57.437Z,83.96
2022-09-12T10:04:28.759Z,83.47
2022-09-12T10:06:57.674Z,83.53
2022-09-12T10:09:26.653Z,83.73
2022-09-12T10:11:54.674Z,84.44
2022-09-12T10:14:29.514Z,84.63
2022-09-12T10:16:56.283Z,85.38
2022-09-12T10:19:34.274Z,84.27
2022-09-12T10:22:01.358Z,85.38
2022-09-12T10:24:32.677Z,83.70
2022-09-12T10:27:08.739Z,83.21
2022-09-12T10:29:42.214Z,82.95
2022-09-12T10:32:09.500Z,82.73
2022-09-12T10:34:42.026Z,82.11
2022-09-12T10:37:15.471Z,82.54
2022-09-12T10:39:51.787Z,82.09
2022-09-12T10:42:33.830Z,81.89
2022-09-12T10:45:00.383Z,79.23
2022-09-12T10:47:31.078Z,79.14
2022-09-12T10:50:22.804Z,80.36
2022-09-12T10:52:49.540Z,79.61
2022-09-12T10:55:16.264Z,78.84
2022-09-12T10:57:57.546Z,77.53
2022-09-12T11:00:24.154Z,77.26
2022-09-12T11:02:57.370Z,77.35
2022-09-12T11:05:47.908Z,75.82
2022-09-12T11:08:26.934Z,74.80
2022-09-12T11:10:57.695Z,75.52
2022-09-12T11:13:38.954Z,73.73
2022-09-12T11:16:16.793Z,71.32
2022-09-12T11:19:07.230Z,71.14
2022-09-12T11:21:57.864Z,67.82
2022-09-12T11:24:37.872Z,68.80
2022-09-12T11:27:19.370Z,69.80
2022-09-12T11:29:49.670Z,70.34
2022-09-12T11:32:42.446Z,69.21
2022-09-12T11:35:18.479Z,68.32
2022-09-12T11:38:31.418Z,66.59
2022-09-12T11:41:02.065Z,66.02
2022-09-12T11:43:37.595Z,65.58
2022-09-12T11:46:12.598Z,65.10
2022-09-12T11:48:45.200Z,66.96
2022-09-12T11:51:18.776Z,65.91
2022-09-12T11:53:56.650Z,66.21
2022-09-12T11:56:23.599Z,65.41
2022-09-12T11:58:58.669Z,64.16
2022-09-12T12:01:31.608Z,65.24
2022-09-12T12:04:05.840Z,64.86
2022-09-12T12:06:36.804Z,61.96
2022-09-12T12:09:05.535Z,63.40
2022-09-12T12:11:35.496Z,62.34
2022-09-12T12:14:06.348Z,62.75
2022-09-12T12:16:34.946Z,61.42
2022-09-12T12:19:06.491Z,63.58
2022-09-12T12:21:40.237Z,60.63
2022-09-12T12:24:17.632Z,60.58
2022-09-12T12:26:59.296Z,60.59
2022-09-12T12:29:44.304Z,59.30
2022-09-12T12:32:26.692Z,59.87
2022-09-12T12:35:29.595Z,59.64
2022-09-12T12:37:57.194Z,56.59
2022-09-12T12:40:27.210Z,59.08
2022-09-12T12:43:30.574Z,59.78
2022-09-12T12:46:09.216Z,59.47
2022-09-12T12:48:55.986Z,57.64
2022-09-12T12:51:32.922Z,58.42
2022-09-12T12:54:00.736Z,57.59
2022-09-12T12:56:40.001Z,56.45
2022-09-12T12:59:19.298Z,57.65
2022-09-12T13:01:54.796Z,57.32
2022-09-12T13:04:25.086Z,57.03
2022-09-12T13:06:59.546Z,56.09
2022-09-12T13:09:32.571Z,57.48
2022-09-12T13:12:05.115Z,56.40
2022-09-12T13:14:48.362Z,55.34
2022-09-12T13:17:20.099Z,55.86
2022-09-12T13:19:47.209Z,57.47
2022-09-12T13:22:13.777Z,58.34
2022-09-12T13:24:42.730Z,57.83
2022-09-12T13:27:19.229Z,56.07
2022-09-12T13:29:45.943Z,57.20
2022-09-12T13:32:12.656Z,58.06
2022-09-12T13:34:55.593Z,57.21
2022-09-12T13:37:38.368Z,57.27
2022-09-12T13:40:22.490Z,57.92
2022-09-12T13:43:05.058Z,57.40
2022-09-12T13:45:36.347Z,56.89
2022-09-12T13:48:04.482Z,57.79
2022-09-12T13:50:36.712Z,56.49
2022-09-12T13:53:07.056Z,57.02
2022-09-12T13:55:35.943Z,57.13
2022-09-12T13:58:05.471Z,56.66
2022-09-12T14:00:33.720Z,55.03
2022-09-12T14:03:00.806Z,55.51
2022-09-12T14:05:27.406Z,56.27
2022-09-12T14:07:57.971Z,56.55
2022-09-12T14:10:29.837Z,58.96
2022-09-12T14:12:58.008Z,58.59
2022-09-12T14:15:28.955Z,57.32
2022-09-12T14:17:57.565Z,57.66
2022-09-12T14:20:24.281Z,58.36
2022-09-12T14:22:52.223Z,60.74
2022-09-12T14:25:21.568Z,58.82
2022-09-12T14:27:51.688Z,57.17
2022-09-12T14:30:24.911Z,59.07
2022-09-12T14:33:19.813Z,58.10
2022-09-12T14:35:47.734Z,59.76
2022-09-12T14:38:25.723Z,58.82
2022-09-12T14:40:58.990Z,56.98
2022-09-12T14:43:28.309Z,58.18
2022-09-12T14:45:58.383Z,58.12
2022-09-12T14:48:29.186Z,58.49
2022-09-12T14:50:55.881Z,56.76
2022-09-12T14:53:30.503Z,57.58
2022-09-12T14:56:03.086Z,58.13
2022-09-12T14:58:29.601Z,59.86
2022-09-12T15:00:59.418Z,60.91
2022-09-12T15:03:38.193Z,60.80
2022-09-12T15:06:05.761Z,62.17
2022-09-12T15:08:32.467Z,62.00
2022-09-12T15:11:00.211Z,62.94
2022-09-12T15:13:27.915Z,62.10
2022-09-12T15:15:55.728Z,59.85
2022-09-12T15:18:24.423Z,60.62
2022-09-12T15:20:55.388Z,58.65
2022-09-12T15:23:30.639Z,60.79
2022-09-12T15:25:57.196Z,61.41
2022-09-12T15:28:25.148Z,63.07
2022-09-12T15:30:54.848Z,61.27
2022-09-12T15:33:23.363Z,65.69
2022-09-12T15:35:50.280Z,65.99
2022-09-12T15:38:20.230Z,65.48
2022-09-12T15:40:50.491Z,64.71
2022-09-12T15:43:17.018Z,64.49
2022-09-12T15:45:44.121Z,65.79
2022-09-12T15:48:10.652Z,65.61
2022-09-12T15:50:37.220Z,67.23
2022-09-12T15:53:03.764Z,66.99
2022-09-12T15:55:32.339Z,66.89
2022-09-12T15:58:02.446Z,64.36
2022-09-12T16:00:31.512Z,64.57
2022-09-12T16:02:58.066Z,66.06
2022-09-12T16:05:26.463Z,66.75
2022-09-12T16:07:54.877Z,69.96
2022-09-12T16:10:23.191Z,69.35
2022-09-12T16:12:51.094Z,70.69
2022-09-12T16:15:20.008Z,70.97
2022-09-12T16:17:46.950Z,71.42
2022-09-12T16:20:13.668Z,71.39
2022-09-12T16:22:40.778Z,71.55
2022-09-12T16:25:08.118Z,73.18
2022-09-12T16:27:35.767Z,72.89
2022-09-12T16:30:04.656Z,73.65
2022-09-12T16:32:31.198Z,74.30
2022-09-12T16:34:57.779Z,74.24
2022-09-12T16:37:24.355Z,74.02
2022-09-12T16:39:50.923Z,74.70
2022-09-12T16:42:17.548Z,75.43
2022-09-12T16:44:44.048Z,76.00
2022-09-12T16:47:12.276Z,75.64
2022-09-12T16:49:38.826Z,75.97
2022-09-12T16:52:05.498Z,75.74
2022-09-12T16:54:32.127Z,75.29
2022-09-12T16:56:58.645Z,75.21
2022-09-12T16:59:25.196Z,75.43
2022-09-12T17:01:51.851Z,75.86
2022-09-12T17:04:23.450Z,76.39
2022-09-12T17:06:50.428Z,76.90
2022-09-12T17:09:16.954Z,75.66
2022-09-12T17:11:43.479Z,76.56
2022-09-12T17:14:10.917Z,77.38
2022-09-12T17:16:39.840Z,77.38
2022-09-12T17:19:07.062Z,78.92
2022-09-12T17:21:35.260Z,79.46
2022-09-12T17:24:03.459Z,80.05
2022-09-12T17:26:30.003Z,80.56
2022-09-12T17:28:56.548Z,80.57
2022-09-12T17:31:23.373Z,81.18
2022-09-12T17:33:49.982Z,81.42
2022-09-12T17:36:17.845Z,82.23
2022-09-12T17:38:46.212Z,82.35
2022-09-12T17:41:14.959Z,82.15
2022-09-12T17:43:41.765Z,82.93
2022-09-12T17:46:08.575Z,83.66
2022-09-12T17:48:35.539Z,83.62
2022-09-12T17:51:07.036Z,83.88
2022-09-12T17:53:33.756Z,84.47
2022-09-12T17:56:02.846Z,84.73
2022-09-12T17:58:29.373Z,85.37
2022-09-12T18:01:00.739Z,85.98
2022-09-12T18:03:27.294Z,87.09
2022-09-12T18:05:55.617Z,86.22
2022-09-12T18:08:23.274Z,86.77
2022-09-12T18:10:51.034Z,86.52
2022-09-12T18:13:19.061Z,87.01
2022-09-12T18:15:45.640Z,87.03
2022-09-12T18:18:12.203Z,87.32
2022-09-12T18:20:38.724Z,87.27
2022-09-12T18:23:05.283Z,87.22
2022-09-12T18:25:31.787Z,88.09
2022-09-12T18:27:58.306Z,88.58
2022-09-12T18:30:26.276Z,88.08
2022-09-12T18:32:52.835Z,88.63
2022-09-12T18:35:19.343Z,88.28
2022-09-12T18:37:45.863Z,88.17
2022-09-12T18:40:12.440Z,88.37
2022-09-12T18:42:39.003Z,88.62
2022-09-12T18:45:06.911Z,88.53
2022-09-12T18:47:35.871Z,89.00
2022-09-12T18:50:02.393Z,89.46
2022-09-12T18:52:28.915Z,89.43
2022-09-12T18:54:55.510Z,89.62
2022-09-12T18:57:22.023Z,89.68
2022-09-12T18:59:48.649Z,90.37
2022-09-12T19:02:16.328Z,89.92
2022-09-12T19:04:44.347Z,89.93
2022-09-12T19:07:10.931Z,90.06
2022-09-12T19:09:37.444Z,90.45
2022-09-12T19:12:04.320Z,90.23
2022-09-12T19:14:30.899Z,90.40
2022-09-12T19:16:57.555Z,91.07
2022-09-12T19:19:24.083Z,91.06
2022-09-12T19:21:51.951Z,91.29
2022-09-12T19:24:18.529Z,91.42
2022-09-12T19:26:45.123Z,91.99
2022-09-12T19:29:12.093Z,92.32
2022-09-12T19:31:38.663Z,92.95
2022-09-12T19:34:07.358Z,93.17
2022-09-12T19:36:44.927Z,93.12
2022-09-12T19:39:15.079Z,93.55
2022-09-12T19:41:41.617Z,93.22
2022-09-12T19:44:08.318Z,92.87
2022-09-12T19:46:34.958Z,93.18
2022-09-12T19:49:01.556Z,92.74
2022-09-12T19:51:28.257Z,92.72
2022-09-12T19:53:54.948Z,93.40
2022-09-12T19:56:23.089Z,93.68
2022-09-12T19:58:55.017Z,93.29
2022-09-12T20:01:24.589Z,93.48
2022-09-12T20:03:51.265Z,92.88
2022-09-12T20:06:18.199Z,92.98
2022-09-12T20:08:45.144Z,93.11
2022-09-12T20:11:13.261Z,92.64
2022-09-12T20:13:41.782Z,93.17
2022-09-12T20:16:09.876Z,93.30
2022-09-12T20:18:36.975Z,93.30
2022-09-12T20:21:11.771Z,93.01
2022-09-12T20:23:38.435Z,92.65
2022-09-12T20:26:05.271Z,93.38
2022-09-12T20:28:31.837Z,93.48
2022-09-12T20:31:02.819Z,93.34
2022-09-12T20:33:30.315Z,93.75
2022-09-12T20:36:04.701Z,93.76
2022-09-12T20:38:31.342Z,93.93
2022-09-12T20:40:58.000Z,94.24
2022-09-12T20:43:24.523Z,94.04
2022-09-12T20:45:51.034Z,94.32
2022-09-12T20:48:18.971Z,94.25
2022-09-12T20:50:45.513Z,94.77
2022-09-12T20:53:12.130Z,94.45
2022-09-12T20:55:38.828Z,94.15
2022-09-12T20:58:05.399Z,94.28
2022-09-12T21:00:31.941Z,94.04
2022-09-12T21:02:58.541Z,94.09
2022-09-12T21:05:26.445Z,94.09
2022-09-12T21:07:52.962Z,93.70
2022-09-12T21:10:19.469Z,92.82
2022-09-12T21:12:46.023Z,92.85
2022-09-12T21:15:12.570Z,93.09
2022-09-12T21:17:39.091Z,92.89
2022-09-12T21:20:11.139Z,93.36
2022-09-12T21:22:39.344Z,93.93
2022-09-12T21:25:06.308Z,94.20
2022-09-12T21:27:32.860Z,94.33
2022-09-12T21:29:59.445Z,94.62
2022-09-12T21:32:25.997Z,94.89
2022-09-12T21:34:52.528Z,94.75
2022-09-12T21:37:19.069Z,94.63
2022-09-12T21:39:46.968Z,94.35
2022-09-12T21:42:13.535Z,93.93
2022-09-12T21:44:40.065Z,93.88
2022-09-12T21:47:06.724Z,93.79
2022-09-12T21:49:33.269Z,94.21
2022-09-12T21:51:59.849Z,93.91
2022-09-12T21:54:26.351Z,93.78
2022-09-12T21:56:54.237Z,93.61
2022-09-12T21:59:20.922Z,93.50
2022-09-12T22:01:47.579Z,92.95
2022-09-12T22:04:14.163Z,93.26
2022-09-12T22:06:40.687Z,92.72
2022-09-12T22:09:07.197Z,92.98
2022-09-12T22:11:33.730Z,93.20
2022-09-12T22:14:01.607Z,92.79
2022-09-12T22:16:28.146Z,92.54
2022-09-12T22:18:54.695Z,93.13
2022-09-12T22:21:22.417Z,93.16
2022-09-12T22:23:48.924Z,93.24
2022-09-12T22:26:15.682Z,93.40
2022-09-12T22:28:42.727Z,93.68
2022-09-12T22:31:12.014Z,93.96
2022-09-12T22:33:39.259Z,93.95
2022-09-12T22:36:06.035Z,94.21
2022-09-12T22:38:32.777Z,93.81
2022-09-12T22:41:06.206Z,93.45
2022-09-12T22:43:33.208Z,93.41
2022-09-12T22:45:59.744Z,93.36
2022-09-12T22:48:27.659Z,93.37
2022-09-12T22:50:54.224Z,93.16
2022-09-12T22:53:20.793Z,93.25
2022-09-12T22:55:47.344Z,93.26
2022-09-12T22:58:13.874Z,93.25
2022-09-12T23:00:45.210Z,94.03
2022-09-12T23:03:11.840Z,93.49
2022-09-12T23:05:39.751Z,93.59
2022-09-12T23:08:06.305Z,93.67
2022-09-12T23:10:35.207Z,94.05
2022-09-12T23:13:01.733Z,93.62
2022-09-12T23:15:28.257Z,93.48
2022-09-12T23:17:54.811Z,92.94
2022-09-12T23:20:21.341Z,92.74
2022-09-12T23:22:49.220Z,92.29
2022-09-12T23:25:15.990Z,92.50
2022-09-12T23:27:42.529Z,92.77
2022-09-12T23:30:10.105Z,92.90
2022-09-12T23:32:36.809Z,92.50
2022-09-12T23:35:04.005Z,92.81
2022-09-12T23:37:30.545Z,93.54
2022-09-12T23:39:58.448Z,93.52
2022-09-12T23:42:24.973Z,93.31
2022-09-12T23:44:51.474Z,93.08
2022-09-12T23:47:17.979Z,93.23
2022-09-12T23:49:44.500Z,93.34
2022-09-12T23:52:11.342Z,92.94
2022-09-12T23:54:37.843Z,93.19
2022-09-12T23:57:05.801Z,93.27
2022-09-12T23:59:32.347Z,93.18
